Time;durP1;ratioP1;P1;durP2;ratioP2;P2;SDS_P1;SDS_P2;PMS_P1;PMS_P2;Temp;Humidity;BMP_temperature;BMP_pressure;BME280_temperature;BME280_humidity;BME280_pressure;Samples;Min_cycle;Max_cycle;Signal;HPM_P1;HPM_P2
2023/01/27 00:00:00;;;;;;;;;;;;;;;-1.24;91.06;98760.88;439386;1256;113470;-41
2023/01/27 00:10:07;;;;;;;;;;;;;;;-1.26;91.03;98756.55;439196;1256;108119;-39
2023/01/27 00:24:34;;;;;;;;;;;;;;;-1.19;91.32;98765.04;439448;1255;97964;-40
2023/01/27 00:41:14;;;;;;;;;;;;;;;-1.27;91.50;98777.23;439542;1256;97992;-39
2023/01/27 00:51:10;;;;;;;;;;;;;;;-1.31;91.35;98779.26;438165;1256;99284;-40
2023/01/27 01:01:16;;;;;;;;;;;;;;;-1.28;91.33;98784.46;437566;1256;107685;-40
2023/01/27 01:11:22;;;;;;;;;;;;;;;-1.21;91.38;98788.41;439749;1256;99678;-41
2023/01/27 01:21:27;;;;;;;;;;;;;;;-1.23;91.35;98786.38;438906;1256;112954;-40
2023/01/27 01:31:33;;;;;;;;;;;;;;;-1.33;91.38;98788.12;439235;1254;108162;-40
2023/01/27 01:41:39;;;;;;;;;;;;;;;-1.36;91.22;98789.08;439013;1256;99219;-40
2023/01/27 01:51:46;;;;;;;;;;;;;;;-1.30;91.25;98788.17;439020;1256;110854;-39
2023/01/27 02:01:52;;;;;;;;;;;;;;;-1.29;91.11;98784.71;438870;1256;109378;-39
2023/01/27 02:11:57;;;;;;;;;;;;;;;-1.34;91.12;98780.73;438947;1256;99227;-39
2023/01/27 02:22:04;;;;;;;;;;;;;;;-1.43;91.13;98774.17;438588;1264;98826;-38
2023/01/27 02:32:21;;;;;;;;;;;;;;;-1.47;91.22;98768.35;439073;1256;107778;-39
2023/01/27 02:42:27;;;;;;;;;;;;;;;-1.48;90.90;98772.76;438378;1256;98840;-40
2023/01/27 02:52:32;;;;;;;;;;;;;;;-1.46;90.84;98761.02;434860;1264;485650;-41
2023/01/27 03:02:38;;;;;;;;;;;;;;;-1.50;90.59;98761.08;436244;1251;99317;-40
2023/01/27 03:12:44;;;;;;;;;;;;;;;-1.59;90.54;98753.65;435373;1256;112293;-40
2023/01/27 03:22:50;;;;;;;;;;;;;;;-1.61;90.42;98757.98;435287;1257;108864;-39
2023/01/27 03:32:55;;;;;;;;;;;;;;;-1.60;90.07;98758.60;435216;1258;99253;-39
2023/01/27 03:53:27;;;;;;;;;;;;;;;-1.65;89.96;98773.74;438562;1257;107248;-41
2023/01/27 04:14:00;;;;;;;;;;;;;;;-1.56;89.97;98785.14;436685;1257;108291;-39
2023/01/27 04:34:11;;;;;;;;;;;;;;;-1.68;90.02;98792.56;436595;1258;99233;-42
2023/01/27 04:44:19;;;;;;;;;;;;;;;-1.70;89.75;98806.23;436088;1254;98862;-40
2023/01/27 04:54:24;;;;;;;;;;;;;;;-1.66;89.53;98809.80;436454;1257;109234;-40
2023/01/27 05:04:30;;;;;;;;;;;;;;;-1.59;89.84;98810.63;436358;1255;99240;-41
2023/01/27 05:14:35;;;;;;;;;;;;;;;-1.61;89.80;98813.34;435289;1257;108360;-41
2023/01/27 05:24:41;;;;;;;;;;;;;;;-1.69;89.92;98808.16;436491;1251;99269;-40
2023/01/27 05:34:46;;;;;;;;;;;;;;;-1.70;89.60;98802.92;436339;1257;99248;-42
2023/01/27 05:44:52;;;;;;;;;;;;;;;-1.60;89.65;98806.14;435303;1256;107244;-40
2023/01/27 05:54:57;;;;;;;;;;;;;;;-1.55;89.80;98814.13;435368;1257;99317;-40
2023/01/27 06:05:03;;;;;;;;;;;;;;;-1.54;90.03;98815.02;435204;1255;111380;-39
2023/01/27 06:15:10;;;;;;;;;;;;;;;-1.57;89.83;98822.77;435317;1256;107996;-40
2023/01/27 06:25:17;;;;;;;;;;;;;;;-1.66;90.02;98834.27;435355;1253;98632;-41
2023/01/27 06:35:22;;;;;;;;;;;;;;;-1.72;89.75;98841.02;435255;1256;110848;-41
2023/01/27 06:45:28;;;;;;;;;;;;;;;-1.72;89.90;98843.41;435163;1256;106969;-39
2023/01/27 06:55:34;;;;;;;;;;;;;;;-1.72;89.70;98852.52;435292;1257;97921;-40
2023/01/27 07:05:41;;;;;;;;;;;;;;;-1.66;89.82;98867.52;435223;1256;107840;-40
2023/01/27 07:15:47;;;;;;;;;;;;;;;-1.58;89.67;98875.38;435306;1256;99231;-40
2023/01/27 07:25:53;;;;;;;;;;;;;;;-1.64;89.74;98873.85;435429;1254;111821;-40
2023/01/27 07:35:59;;;;;;;;;;;;;;;-1.57;89.49;98871.20;435280;1256;109287;-44
2023/01/27 07:46:04;;;;;;;;;;;;;;;-1.43;89.32;98880.18;435280;1257;98823;-41
2023/01/27 08:06:14;;;;;;;;;;;;;;;-1.54;88.91;98887.98;435265;1256;99324;-40
2023/01/27 08:16:20;;;;;;;;;;;;;;;-1.47;88.84;98888.02;435311;1256;112094;-40
2023/01/27 08:26:26;;;;;;;;;;;;;;;-1.43;88.86;98882.79;435361;1256;109695;-39
2023/01/27 08:36:34;;;;;;;;;;;;;;;-1.42;88.66;98889.09;435350;1251;99157;-40
2023/01/27 08:46:39;;;;;;;;;;;;;;;-1.28;88.38;98891.05;435284;1255;108593;-40
2023/01/27 08:56:45;;;;;;;;;;;;;;;-1.14;88.58;98891.90;435231;1256;99204;-40
2023/01/27 09:06:52;;;;;;;;;;;;;;;-1.11;88.40;98895.20;435276;1256;111347;-40
2023/01/27 09:16:58;;;;;;;;;;;;;;;-1.03;88.10;98901.89;435418;1256;107397;-40
2023/01/27 09:27:04;;;;;;;;;;;;;;;-0.53;88.14;98909.27;435344;1253;99294;-41
2023/01/27 09:37:10;;;;;;;;;;;;;;;-0.32;87.39;98915.98;435272;1256;111761;-40
2023/01/27 09:47:18;;;;;;;;;;;;;;;-0.34;87.03;98926.39;435428;1253;108318;-40
2023/01/27 09:57:23;;;;;;;;;;;;;;;-0.24;86.30;98929.92;435153;1256;99255;-40
2023/01/27 10:07:34;;;;;;;;;;;;;;;-0.14;86.45;98931.48;435424;1255;112525;-40
2023/01/27 10:17:39;;;;;;;;;;;;;;;-0.09;85.50;98936.65;435280;1256;107063;-41
2023/01/27 10:27:47;;;;;;;;;;;;;;;-0.14;85.00;98935.02;435270;1253;99247;-40
2023/01/27 10:37:54;;;;;;;;;;;;;;;0.03;84.92;98929.77;435227;1256;111971;-41
2023/01/27 10:48:16;;;;;;;;;;;;;;;0.12;84.45;98935.28;435352;1256;106680;-41
2023/01/27 10:58:28;;;;;;;;;;;;;;;0.12;83.77;98942.44;435412;1251;99910;-40
2023/01/27 11:08:35;;;;;;;;;;;;;;;0.06;82.71;98939.04;435303;1256;110737;-40
2023/01/27 11:18:42;;;;;;;;;;;;;;;0.09;82.08;98937.45;435340;1256;109491;-40
2023/01/27 11:28:47;;;;;;;;;;;;;;;0.20;81.60;98935.50;435367;1256;99240;-41
2023/01/27 11:38:52;;;;;;;;;;;;;;;0.24;81.32;98927.48;435310;1256;107982;-41
2023/01/27 11:48:58;;;;;;;;;;;;;;;0.38;81.57;98911.43;436533;1256;98091;-40
2023/01/27 11:59:03;;;;;;;;;;;;;;;0.37;80.76;98912.30;435400;1255;112536;-39
2023/01/27 12:09:09;;;;;;;;;;;;;;;0.36;80.34;98914.65;435388;1256;107379;-39
2023/01/27 12:19:15;;;;;;;;;;;;;;;0.32;80.39;98919.00;435380;1256;97993;-41
2023/01/27 12:29:21;;;;;;;;;;;;;;;0.31;80.03;98920.30;436918;1256;110825;-41
2023/01/27 12:49:30;;;;;;;;;;;;;;;0.15;78.83;98909.20;435324;1254;97993;-40
2023/01/27 12:59:45;;;;;;;;;;;;;;;0.09;78.13;98912.52;435851;1255;111887;-40
2023/01/27 13:09:52;;;;;;;;;;;;;;;0.02;77.80;98920.55;437723;1256;107717;-40
2023/01/27 13:19:57;;;;;;;;;;;;;;;-0.03;77.61;98925.81;435216;1256;98831;-40
2023/01/27 13:30:02;;;;;;;;;;;;;;;-0.05;77.36;98924.50;435244;1253;112029;-40
2023/01/27 13:40:14;;;;;;;;;;;;;;;-0.15;76.84;98939.44;437500;1256;109045;-41
2023/01/27 13:50:21;;;;;;;;;;;;;;;-0.19;77.09;98944.00;435392;1256;108666;-40
2023/01/27 14:00:30;;;;;;;;;;;;;;;-0.21;77.10;98952.83;435892;1256;99222;-41
2023/01/27 14:10:40;;;;;;;;;;;;;;;-0.20;77.51;98962.25;438300;1256;106843;-38
2023/01/27 14:20:45;;;;;;;;;;;;;;;-0.31;78.14;98966.48;438520;1256;117352;-39
2023/01/27 14:30:51;;;;;;;;;;;;;;;-0.40;78.51;98975.00;438575;1256;110486;-41
2023/01/27 14:51:05;;;;;;;;;;;;;;;-0.40;79.55;98973.42;435249;1256;99230;-41
2023/01/27 15:01:11;;;;;;;;;;;;;;;-0.49;79.68;98976.61;435104;1256;386284;-40
2023/01/27 15:11:20;;;;;;;;;;;;;;;-0.57;79.76;98973.77;435277;1256;108213;-40
2023/01/27 15:21:28;;;;;;;;;;;;;;;-0.55;79.76;98972.19;435265;1256;99356;-40
2023/01/27 15:31:33;;;;;;;;;;;;;;;-0.56;79.98;98968.41;435255;1256;112182;-41
2023/01/27 15:41:51;;;;;;;;;;;;;;;-0.60;79.93;98977.48;435412;1256;108391;-41
2023/01/27 15:52:08;;;;;;;;;;;;;;;-0.64;79.92;98985.89;435283;1256;107493;-40
2023/01/27 16:02:13;;;;;;;;;;;;;;;-0.65;79.47;98997.86;435167;1256;98009;-40
2023/01/27 16:12:31;;;;;;;;;;;;;;;-0.57;79.81;99005.02;435297;1252;108491;-40
2023/01/27 16:22:40;;;;;;;;;;;;;;;-0.57;79.74;99012.05;435218;1255;98881;-40
2023/01/27 16:32:48;;;;;;;;;;;;;;;-0.63;79.32;99019.95;435314;1253;110990;-39
2023/01/27 16:42:54;;;;;;;;;;;;;;;-0.68;79.55;99016.83;435217;1256;109795;-40
2023/01/27 16:53:01;;;;;;;;;;;;;;;-0.68;79.23;99017.02;435294;1256;99222;-40
2023/01/27 17:03:05;;;;;;;;;;;;;;;-0.60;79.53;99017.29;435342;1256;108597;-40
2023/01/27 17:13:15;;;;;;;;;;;;;;;-0.58;80.07;99019.18;435236;1256;98025;-41
2023/01/27 17:33:27;;;;;;;;;;;;;;;-0.68;79.74;99024.13;435206;1255;108063;-40
2023/01/27 17:43:34;;;;;;;;;;;;;;;-0.66;79.92;99025.16;435325;1257;99086;-40
2023/01/27 17:53:39;;;;;;;;;;;;;;;-0.58;80.12;99032.55;435290;1256;107242;-40
2023/01/27 18:03:46;;;;;;;;;;;;;;;-0.59;80.47;99030.79;435253;1255;98853;-44
2023/01/27 18:13:51;;;;;;;;;;;;;;;-0.63;80.53;99031.96;435260;1257;110345;-39
2023/01/27 18:23:57;;;;;;;;;;;;;;;-0.70;80.41;99042.70;435268;1256;107602;-41
2023/01/27 18:34:21;;;;;;;;;;;;;;;-0.66;80.54;99050.80;435278;1257;99234;-40
2023/01/27 18:54:31;;;;;;;;;;;;;;;-0.66;80.94;99063.10;435302;1257;99218;-40
2023/01/27 19:04:37;;;;;;;;;;;;;;;-0.68;81.01;99064.64;435315;1256;99192;-41
2023/01/27 19:14:45;;;;;;;;;;;;;;;-0.72;81.28;99064.52;435278;1256;99396;-40
2023/01/27 19:24:51;;;;;;;;;;;;;;;-0.68;81.14;99078.80;435271;1257;111479;-40
2023/01/27 19:34:56;;;;;;;;;;;;;;;-0.58;81.58;99094.71;435203;1256;108490;-39
2023/01/27 19:45:02;;;;;;;;;;;;;;;-0.57;81.66;99095.09;435252;1256;98011;-40
2023/01/27 19:55:08;;;;;;;;;;;;;;;-0.61;81.68;99097.39;435388;1264;112053;-40
2023/01/27 20:15:18;;;;;;;;;;;;;;;-0.68;81.87;99103.60;435316;1258;99284;-40
2023/01/27 20:25:24;;;;;;;;;;;;;;;-0.66;82.12;99105.33;435206;1256;110825;-40
2023/01/27 20:35:30;;;;;;;;;;;;;;;-0.67;82.24;99107.14;435268;1265;107747;-41
2023/01/27 20:45:37;;;;;;;;;;;;;;;-0.68;82.02;99121.13;435325;1256;99228;-40
2023/01/27 20:55:43;;;;;;;;;;;;;;;-0.69;82.30;99118.91;435288;1256;109398;-41
2023/01/27 21:05:49;;;;;;;;;;;;;;;-0.67;82.48;99119.77;435263;1256;99253;-41
2023/01/27 21:15:55;;;;;;;;;;;;;;;-0.68;82.76;99119.15;435268;1258;113009;-40
2023/01/27 21:26:02;;;;;;;;;;;;;;;-0.78;82.90;99123.62;435353;1255;107575;-41
2023/01/27 21:36:09;;;;;;;;;;;;;;;-0.81;83.05;99125.64;435273;1264;99231;-40
2023/01/27 21:46:15;;;;;;;;;;;;;;;-0.80;83.30;99122.70;435251;1256;107533;-40
2023/01/27 21:56:22;;;;;;;;;;;;;;;-0.78;83.55;99120.50;435261;1256;98325;-40
2023/01/27 22:06:28;;;;;;;;;;;;;;;-0.74;83.95;99115.78;435323;1264;112132;-40
2023/01/27 22:16:33;;;;;;;;;;;;;;;-0.77;84.07;99113.12;435223;1256;108140;-39
2023/01/27 22:26:39;;;;;;;;;;;;;;;-0.84;84.35;99107.43;435310;1264;99205;-41
2023/01/27 22:36:44;;;;;;;;;;;;;;;-0.83;84.43;99100.86;435282;1256;108140;-40
2023/01/27 22:46:50;;;;;;;;;;;;;;;-0.81;84.70;99099.48;435190;1264;99220;-39
2023/01/27 22:56:56;;;;;;;;;;;;;;;-0.81;85.01;99092.86;436938;1258;111590;-40
2023/01/27 23:07:04;;;;;;;;;;;;;;;-0.85;85.38;99091.58;436086;1264;106934;-40
2023/01/27 23:17:10;;;;;;;;;;;;;;;-0.86;85.71;99088.08;436316;1257;97982;-41
2023/01/27 23:27:15;;;;;;;;;;;;;;;-0.84;85.99;99078.44;437748;1257;107493;-40
2023/01/27 23:37:21;;;;;;;;;;;;;;;-0.83;86.13;99079.38;436163;1264;98418;-40
2023/01/27 23:57:34;;;;;;;;;;;;;;;-0.88;86.31;99075.20;435173;1255;109136;-39
